sensor_id;sensor_type;location;lat;lon;timestamp;pressure;altitude;pressure_sealevel;temperature;humidity
52291;BME280;39663;45.432;28.050;2023-04-23T00:00:07;101296.15;;;12.75;44.71
52291;BME280;39663;45.432;28.050;2023-04-23T00:00:40;101296.64;;;12.73;44.79
52291;BME280;39663;45.432;28.050;2023-04-23T00:01:12;101301.06;;;12.73;45.07
52291;BME280;39663;45.432;28.050;2023-04-23T00:01:44;101300.86;;;12.74;44.96
52291;BME280;39663;45.432;28.050;2023-04-23T00:02:16;101300.77;;;12.62;45.05
52291;BME280;39663;45.432;28.050;2023-04-23T00:02:52;101300.48;;;12.47;45.64
52291;BME280;39663;45.432;28.050;2023-04-23T00:03:25;101300.06;;;12.11;45.84
52291;BME280;39663;45.432;28.050;2023-04-23T00:03:58;101302.61;;;12.33;45.41
52291;BME280;39663;45.432;28.050;2023-04-23T00:04:30;101301.96;;;12.75;45.40
52291;BME280;39663;45.432;28.050;2023-04-23T00:05:05;101301.26;;;12.43;45.74
52291;BME280;39663;45.432;28.050;2023-04-23T00:05:37;101300.28;;;12.54;46.19
52291;BME280;39663;45.432;28.050;2023-04-23T00:06:09;101298.98;;;12.29;45.91
52291;BME280;39663;45.432;28.050;2023-04-23T00:06:42;101299.48;;;12.40;45.59
52291;BME280;39663;45.432;28.050;2023-04-23T00:07:13;101297.60;;;12.64;45.51
52291;BME280;39663;45.432;28.050;2023-04-23T00:07:45;101296.42;;;12.42;46.00
52291;BME280;39663;45.432;28.050;2023-04-23T00:08:17;101295.50;;;12.41;45.70
52291;BME280;39663;45.432;28.050;2023-04-23T00:08:50;101295.63;;;12.47;45.37
52291;BME280;39663;45.432;28.050;2023-04-23T00:09:23;101294.55;;;12.50;45.81
52291;BME280;39663;45.432;28.050;2023-04-23T00:09:57;101295.46;;;12.49;45.77
52291;BME280;39663;45.432;28.050;2023-04-23T00:10:29;101294.57;;;12.31;45.69
52291;BME280;39663;45.432;28.050;2023-04-23T00:11:01;101296.40;;;12.60;45.40
52291;BME280;39663;45.432;28.050;2023-04-23T00:11:34;101294.33;;;12.34;45.40
52291;BME280;39663;45.432;28.050;2023-04-23T00:12:06;101293.44;;;12.41;45.37
52291;BME280;39663;45.432;28.050;2023-04-23T00:12:39;101293.98;;;12.51;45.55
52291;BME280;39663;45.432;28.050;2023-04-23T00:13:11;101291.62;;;12.55;45.21
52291;BME280;39663;45.432;28.050;2023-04-23T00:13:43;101291.60;;;12.55;45.85
52291;BME280;39663;45.432;28.050;2023-04-23T00:14:15;101290.83;;;12.61;45.34
52291;BME280;39663;45.432;28.050;2023-04-23T00:14:47;101287.53;;;12.57;45.39
52291;BME280;39663;45.432;28.050;2023-04-23T00:15:19;101288.41;;;12.32;45.45
52291;BME280;39663;45.432;28.050;2023-04-23T00:15:51;101288.65;;;12.60;45.45
52291;BME280;39663;45.432;28.050;2023-04-23T00:16:23;101287.42;;;12.56;45.54
52291;BME280;39663;45.432;28.050;2023-04-23T00:16:55;101289.59;;;12.41;45.57
52291;BME280;39663;45.432;28.050;2023-04-23T00:17:27;101287.38;;;12.48;45.73
52291;BME280;39663;45.432;28.050;2023-04-23T00:17:58;101289.48;;;12.44;45.91
52291;BME280;39663;45.432;28.050;2023-04-23T00:18:29;101289.72;;;12.01;46.41
52291;BME280;39663;45.432;28.050;2023-04-23T00:19:01;101286.57;;;12.09;46.35
52291;BME280;39663;45.432;28.050;2023-04-23T00:19:33;101289.48;;;11.36;46.28
52291;BME280;39663;45.432;28.050;2023-04-23T00:20:06;101288.42;;;11.47;46.56
52291;BME280;39663;45.432;28.050;2023-04-23T00:20:38;101286.42;;;12.01;46.49
52291;BME280;39663;45.432;28.050;2023-04-23T00:21:10;101288.51;;;11.78;46.64
52291;BME280;39663;45.432;28.050;2023-04-23T00:21:42;101288.25;;;11.79;46.71
52291;BME280;39663;45.432;28.050;2023-04-23T00:22:14;101288.02;;;12.11;46.16
52291;BME280;39663;45.432;28.050;2023-04-23T00:22:47;101288.90;;;11.62;46.41
52291;BME280;39663;45.432;28.050;2023-04-23T00:23:19;101288.44;;;11.24;46.37
52291;BME280;39663;45.432;28.050;2023-04-23T00:23:51;101286.51;;;10.77;46.54
52291;BME280;39663;45.432;28.050;2023-04-23T00:24:23;101286.06;;;11.69;46.74
52291;BME280;39663;45.432;28.050;2023-04-23T00:24:54;101287.46;;;11.98;46.56
52291;BME280;39663;45.432;28.050;2023-04-23T00:25:26;101286.98;;;11.84;46.75
52291;BME280;39663;45.432;28.050;2023-04-23T00:25:57;101285.48;;;12.00;46.68
52291;BME280;39663;45.432;28.050;2023-04-23T00:26:29;101288.01;;;11.98;46.94
52291;BME280;39663;45.432;28.050;2023-04-23T00:27:00;101290.29;;;11.95;46.78
52291;BME280;39663;45.432;28.050;2023-04-23T00:27:32;101286.87;;;12.23;46.73
52291;BME280;39663;45.432;28.050;2023-04-23T00:28:04;101286.92;;;12.02;47.02
52291;BME280;39663;45.432;28.050;2023-04-23T00:28:35;101286.83;;;12.04;47.29
52291;BME280;39663;45.432;28.050;2023-04-23T00:29:07;101286.18;;;12.04;47.29
52291;BME280;39663;45.432;28.050;2023-04-23T00:29:38;101285.76;;;12.02;47.08
52291;BME280;39663;45.432;28.050;2023-04-23T00:30:11;101286.34;;;12.09;47.18
52291;BME280;39663;45.432;28.050;2023-04-23T00:30:42;101286.55;;;12.04;47.22
52291;BME280;39663;45.432;28.050;2023-04-23T00:31:14;101287.20;;;11.89;47.00
52291;BME280;39663;45.432;28.050;2023-04-23T00:31:45;101285.56;;;11.94;47.19
52291;BME280;39663;45.432;28.050;2023-04-23T00:32:17;101287.46;;;11.91;47.27
52291;BME280;39663;45.432;28.050;2023-04-23T00:32:48;101286.97;;;11.96;47.30
52291;BME280;39663;45.432;28.050;2023-04-23T00:33:20;101285.65;;;12.02;47.38
52291;BME280;39663;45.432;28.050;2023-04-23T00:33:52;101284.55;;;11.96;47.29
52291;BME280;39663;45.432;28.050;2023-04-23T00:34:24;101282.87;;;12.17;46.58
52291;BME280;39663;45.432;28.050;2023-04-23T00:34:56;101282.19;;;11.99;46.77
52291;BME280;39663;45.432;28.050;2023-04-23T00:35:27;101284.24;;;12.28;46.73
52291;BME280;39663;45.432;28.050;2023-04-23T00:35:59;101283.42;;;12.38;46.18
52291;BME280;39663;45.432;28.050;2023-04-23T00:36:30;101283.08;;;12.13;46.21
52291;BME280;39663;45.432;28.050;2023-04-23T00:37:02;101284.18;;;12.27;46.71
52291;BME280;39663;45.432;28.050;2023-04-23T00:37:33;101284.70;;;12.35;46.59
52291;BME280;39663;45.432;28.050;2023-04-23T00:38:05;101283.94;;;12.52;45.82
52291;BME280;39663;45.432;28.050;2023-04-23T00:38:37;101284.64;;;12.16;46.64
52291;BME280;39663;45.432;28.050;2023-04-23T00:39:08;101282.03;;;12.56;46.01
52291;BME280;39663;45.432;28.050;2023-04-23T00:39:40;101282.23;;;12.59;46.16
52291;BME280;39663;45.432;28.050;2023-04-23T00:40:12;101282.99;;;12.53;45.95
52291;BME280;39663;45.432;28.050;2023-04-23T00:40:44;101285.35;;;12.58;45.65
52291;BME280;39663;45.432;28.050;2023-04-23T00:41:15;101285.41;;;12.51;46.03
52291;BME280;39663;45.432;28.050;2023-04-23T00:41:47;101285.09;;;12.38;45.71
52291;BME280;39663;45.432;28.050;2023-04-23T00:42:18;101287.20;;;12.60;45.46
52291;BME280;39663;45.432;28.050;2023-04-23T00:42:51;101286.39;;;12.53;45.77
52291;BME280;39663;45.432;28.050;2023-04-23T00:43:23;101287.40;;;12.36;46.20
52291;BME280;39663;45.432;28.050;2023-04-23T00:43:55;101288.91;;;12.44;45.61
52291;BME280;39663;45.432;28.050;2023-04-23T00:44:27;101288.11;;;12.55;45.95
52291;BME280;39663;45.432;28.050;2023-04-23T00:44:59;101290.50;;;12.32;46.23
52291;BME280;39663;45.432;28.050;2023-04-23T00:45:31;101290.03;;;12.39;46.12
52291;BME280;39663;45.432;28.050;2023-04-23T00:46:03;101289.07;;;12.48;45.95
52291;BME280;39663;45.432;28.050;2023-04-23T00:46:35;101291.62;;;12.42;45.75
52291;BME280;39663;45.432;28.050;2023-04-23T00:47:07;101293.04;;;12.23;46.12
52291;BME280;39663;45.432;28.050;2023-04-23T00:47:39;101293.96;;;12.40;45.82
52291;BME280;39663;45.432;28.050;2023-04-23T00:48:11;101292.36;;;12.32;46.22
52291;BME280;39663;45.432;28.050;2023-04-23T00:48:44;101291.21;;;12.33;46.25
52291;BME280;39663;45.432;28.050;2023-04-23T00:49:16;101293.47;;;12.23;46.23
52291;BME280;39663;45.432;28.050;2023-04-23T00:49:50;101294.42;;;11.68;46.41
52291;BME280;39663;45.432;28.050;2023-04-23T00:50:21;101295.27;;;11.66;47.13
52291;BME280;39663;45.432;28.050;2023-04-23T00:50:58;101295.42;;;11.84;47.12
52291;BME280;39663;45.432;28.050;2023-04-23T00:51:29;101295.45;;;11.95;47.05
52291;BME280;39663;45.432;28.050;2023-04-23T00:52:01;101294.53;;;11.79;46.87
52291;BME280;39663;45.432;28.050;2023-04-23T00:52:32;101293.60;;;11.98;46.61
52291;BME280;39663;45.432;28.050;2023-04-23T00:53:04;101294.16;;;12.07;46.55
52291;BME280;39663;45.432;28.050;2023-04-23T00:53:35;101294.74;;;11.90;46.96
52291;BME280;39663;45.432;28.050;2023-04-23T00:54:07;101294.85;;;11.97;46.94
52291;BME280;39663;45.432;28.050;2023-04-23T00:54:39;101292.11;;;12.04;46.72
52291;BME280;39663;45.432;28.050;2023-04-23T00:55:10;101293.38;;;12.03;46.77
52291;BME280;39663;45.432;28.050;2023-04-23T00:55:42;101292.98;;;12.01;46.62
52291;BME280;39663;45.432;28.050;2023-04-23T00:56:14;101291.93;;;11.87;47.42
52291;BME280;39663;45.432;28.050;2023-04-23T00:56:45;101291.19;;;12.04;46.74
52291;BME280;39663;45.432;28.050;2023-04-23T00:57:17;101291.06;;;12.07;46.77
52291;BME280;39663;45.432;28.050;2023-04-23T00:57:49;101292.42;;;11.73;46.90
52291;BME280;39663;45.432;28.050;2023-04-23T00:58:22;101293.09;;;11.95;46.94
52291;BME280;39663;45.432;28.050;2023-04-23T00:58:54;101291.46;;;11.78;47.26
52291;BME280;39663;45.432;28.050;2023-04-23T00:59:26;101292.11;;;11.75;47.41
52291;BME280;39663;45.432;28.050;2023-04-23T00:59:58;101293.49;;;11.73;47.35
52291;BME280;39663;45.432;28.050;2023-04-23T01:00:30;101291.48;;;11.63;47.82
52291;BME280;39663;45.432;28.050;2023-04-23T01:01:02;101291.18;;;11.80;47.24
52291;BME280;39663;45.432;28.050;2023-04-23T01:01:33;101292.47;;;11.54;47.73
52291;BME280;39663;45.432;28.050;2023-04-23T01:02:19;101292.21;;;11.49;48.05
52291;BME280;39663;45.432;28.050;2023-04-23T01:02:51;101293.25;;;11.30;48.34
52291;BME280;39663;45.432;28.050;2023-04-23T01:03:24;101291.25;;;11.57;47.88
52291;BME280;39663;45.432;28.050;2023-04-23T01:03:56;101292.61;;;11.63;47.45
52291;BME280;39663;45.432;28.050;2023-04-23T01:04:30;101289.82;;;11.89;47.27
52291;BME280;39663;45.432;28.050;2023-04-23T01:05:03;101287.96;;;12.04;47.04
52291;BME280;39663;45.432;28.050;2023-04-23T01:05:35;101289.70;;;11.99;47.07
52291;BME280;39663;45.432;28.050;2023-04-23T01:06:06;101288.46;;;11.95;46.96
52291;BME280;39663;45.432;28.050;2023-04-23T01:06:38;101289.15;;;12.01;47.07
52291;BME280;39663;45.432;28.050;2023-04-23T01:07:10;101287.38;;;11.92;47.22
52291;BME280;39663;45.432;28.050;2023-04-23T01:07:43;101288.55;;;11.93;47.20
52291;BME280;39663;45.432;28.050;2023-04-23T01:08:16;101290.62;;;11.95;47.08
52291;BME280;39663;45.432;28.050;2023-04-23T01:08:47;101291.23;;;11.97;47.21
52291;BME280;39663;45.432;28.050;2023-04-23T01:09:19;101289.45;;;11.75;47.90
52291;BME280;39663;45.432;28.050;2023-04-23T01:09:51;101288.71;;;11.48;48.15
52291;BME280;39663;45.432;28.050;2023-04-23T01:10:22;101289.39;;;11.73;48.33
52291;BME280;39663;45.432;28.050;2023-04-23T01:10:54;101289.34;;;11.47;48.25
52291;BME280;39663;45.432;28.050;2023-04-23T01:11:26;101290.12;;;11.59;48.28
52291;BME280;39663;45.432;28.050;2023-04-23T01:11:57;101291.13;;;11.66;48.11
52291;BME280;39663;45.432;28.050;2023-04-23T01:12:30;101290.54;;;11.56;48.06
52291;BME280;39663;45.432;28.050;2023-04-23T01:13:01;101289.24;;;11.84;47.58
52291;BME280;39663;45.432;28.050;2023-04-23T01:13:34;101288.93;;;11.89;47.71
52291;BME280;39663;45.432;28.050;2023-04-23T01:14:06;101288.77;;;11.81;48.10
52291;BME280;39663;45.432;28.050;2023-04-23T01:14:37;101288.79;;;11.88;47.77
52291;BME280;39663;45.432;28.050;2023-04-23T01:15:10;101288.46;;;11.85;47.85
52291;BME280;39663;45.432;28.050;2023-04-23T01:15:42;101290.23;;;11.72;48.28
52291;BME280;39663;45.432;28.050;2023-04-23T01:16:14;101289.71;;;11.73;48.36
52291;BME280;39663;45.432;28.050;2023-04-23T01:16:46;101289.42;;;11.92;47.97
52291;BME280;39663;45.432;28.050;2023-04-23T01:17:17;101285.98;;;12.16;47.85
52291;BME280;39663;45.432;28.050;2023-04-23T01:17:48;101286.61;;;11.98;47.83
52291;BME280;39663;45.432;28.050;2023-04-23T01:18:20;101284.33;;;11.86;48.04
52291;BME280;39663;45.432;28.050;2023-04-23T01:18:52;101282.53;;;11.96;47.93
52291;BME280;39663;45.432;28.050;2023-04-23T01:19:23;101284.90;;;12.10;47.53
52291;BME280;39663;45.432;28.050;2023-04-23T01:19:55;101285.50;;;11.95;47.88
52291;BME280;39663;45.432;28.050;2023-04-23T01:20:27;101282.24;;;12.08;47.39
52291;BME280;39663;45.432;28.050;2023-04-23T01:20:59;101283.50;;;11.83;47.96
52291;BME280;39663;45.432;28.050;2023-04-23T01:21:30;101281.84;;;12.05;47.93
52291;BME280;39663;45.432;28.050;2023-04-23T01:22:02;101282.61;;;12.18;47.36
52291;BME280;39663;45.432;28.050;2023-04-23T01:22:35;101280.87;;;12.19;47.58
52291;BME280;39663;45.432;28.050;2023-04-23T01:23:06;101281.32;;;12.23;47.32
52291;BME280;39663;45.432;28.050;2023-04-23T01:23:38;101282.48;;;12.31;47.30
52291;BME280;39663;45.432;28.050;2023-04-23T01:24:10;101283.16;;;12.38;47.30
52291;BME280;39663;45.432;28.050;2023-04-23T01:24:42;101283.14;;;12.24;46.77
52291;BME280;39663;45.432;28.050;2023-04-23T01:25:14;101281.19;;;12.02;47.82
52291;BME280;39663;45.432;28.050;2023-04-23T01:25:45;101282.65;;;12.37;47.19
52291;BME280;39663;45.432;28.050;2023-04-23T01:26:17;101282.88;;;12.08;47.39
52291;BME280;39663;45.432;28.050;2023-04-23T01:26:48;101285.49;;;12.30;47.45
52291;BME280;39663;45.432;28.050;2023-04-23T01:27:20;101284.49;;;12.31;47.21
52291;BME280;39663;45.432;28.050;2023-04-23T01:27:51;101283.50;;;12.08;47.49
52291;BME280;39663;45.432;28.050;2023-04-23T01:28:23;101284.99;;;11.99;47.41
52291;BME280;39663;45.432;28.050;2023-04-23T01:28:55;101283.02;;;12.14;47.77
52291;BME280;39663;45.432;28.050;2023-04-23T01:29:27;101282.09;;;12.23;47.29
52291;BME280;39663;45.432;28.050;2023-04-23T01:29:59;101281.31;;;12.21;47.31
52291;BME280;39663;45.432;28.050;2023-04-23T01:30:31;101282.45;;;12.10;47.49
52291;BME280;39663;45.432;28.050;2023-04-23T01:31:03;101279.89;;;12.12;47.19
52291;BME280;39663;45.432;28.050;2023-04-23T01:31:35;101281.86;;;12.22;46.84
52291;BME280;39663;45.432;28.050;2023-04-23T01:32:08;101279.46;;;12.05;47.40
52291;BME280;39663;45.432;28.050;2023-04-23T01:32:40;101280.47;;;12.25;47.54
52291;BME280;39663;45.432;28.050;2023-04-23T01:33:12;101281.43;;;12.37;46.91
52291;BME280;39663;45.432;28.050;2023-04-23T01:33:44;101280.71;;;12.39;47.15
52291;BME280;39663;45.432;28.050;2023-04-23T01:34:16;101280.52;;;12.47;46.79
52291;BME280;39663;45.432;28.050;2023-04-23T01:34:48;101282.77;;;12.46;46.92
52291;BME280;39663;45.432;28.050;2023-04-23T01:35:22;101282.58;;;12.22;47.10
52291;BME280;39663;45.432;28.050;2023-04-23T01:35:54;101282.95;;;12.51;46.98
52291;BME280;39663;45.432;28.050;2023-04-23T01:36:27;101282.44;;;12.61;46.35
52291;BME280;39663;45.432;28.050;2023-04-23T01:36:59;101284.39;;;12.61;46.20
52291;BME280;39663;45.432;28.050;2023-04-23T01:37:31;101283.03;;;12.65;46.52
52291;BME280;39663;45.432;28.050;2023-04-23T01:38:04;101283.26;;;12.30;46.35
52291;BME280;39663;45.432;28.050;2023-04-23T01:38:38;101282.57;;;12.38;46.20
52291;BME280;39663;45.432;28.050;2023-04-23T01:39:09;101281.42;;;12.37;46.14
52291;BME280;39663;45.432;28.050;2023-04-23T01:39:41;101282.57;;;12.31;46.48
52291;BME280;39663;45.432;28.050;2023-04-23T01:40:12;101281.55;;;12.39;47.03
52291;BME280;39663;45.432;28.050;2023-04-23T01:40:44;101278.34;;;12.23;46.42
52291;BME280;39663;45.432;28.050;2023-04-23T01:41:15;101282.41;;;12.14;46.86
52291;BME280;39663;45.432;28.050;2023-04-23T01:41:47;101281.19;;;12.07;46.80
52291;BME280;39663;45.432;28.050;2023-04-23T01:42:19;101277.88;;;12.11;47.19
52291;BME280;39663;45.432;28.050;2023-04-23T01:42:50;101278.28;;;12.40;47.01
52291;BME280;39663;45.432;28.050;2023-04-23T01:43:22;101279.33;;;12.52;46.46
52291;BME280;39663;45.432;28.050;2023-04-23T01:43:56;101277.20;;;12.34;46.53
52291;BME280;39663;45.432;28.050;2023-04-23T01:44:28;101277.51;;;12.36;46.03
52291;BME280;39663;45.432;28.050;2023-04-23T01:45:01;101276.32;;;12.08;46.96
52291;BME280;39663;45.432;28.050;2023-04-23T01:45:32;101275.85;;;12.37;46.68
52291;BME280;39663;45.432;28.050;2023-04-23T01:46:04;101278.05;;;12.28;46.65
52291;BME280;39663;45.432;28.050;2023-04-23T01:46:36;101276.23;;;12.44;46.77
52291;BME280;39663;45.432;28.050;2023-04-23T01:47:07;101277.89;;;12.50;45.97
52291;BME280;39663;45.432;28.050;2023-04-23T01:47:39;101277.59;;;12.46;46.33
52291;BME280;39663;45.432;28.050;2023-04-23T01:48:11;101276.84;;;12.34;46.52
52291;BME280;39663;45.432;28.050;2023-04-23T01:48:42;101277.43;;;12.42;46.23
52291;BME280;39663;45.432;28.050;2023-04-23T01:49:14;101275.44;;;12.39;46.56
52291;BME280;39663;45.432;28.050;2023-04-23T01:49:45;101278.51;;;12.40;46.24
52291;BME280;39663;45.432;28.050;2023-04-23T01:50:17;101278.66;;;12.30;46.57
52291;BME280;39663;45.432;28.050;2023-04-23T01:50:50;101277.96;;;12.38;46.44
52291;BME280;39663;45.432;28.050;2023-04-23T01:51:21;101279.92;;;12.43;46.43
52291;BME280;39663;45.432;28.050;2023-04-23T01:51:53;101280.27;;;12.47;46.12
52291;BME280;39663;45.432;28.050;2023-04-23T01:52:24;101278.64;;;12.68;46.16
52291;BME280;39663;45.432;28.050;2023-04-23T01:52:56;101278.64;;;12.32;46.21
52291;BME280;39663;45.432;28.050;2023-04-23T01:53:27;101278.96;;;12.26;46.40
52291;BME280;39663;45.432;28.050;2023-04-23T01:53:59;101276.91;;;12.74;46.25
52291;BME280;39663;45.432;28.050;2023-04-23T01:54:30;101278.44;;;12.59;45.93
52291;BME280;39663;45.432;28.050;2023-04-23T01:55:02;101275.50;;;12.65;45.69
52291;BME280;39663;45.432;28.050;2023-04-23T01:55:35;101273.92;;;12.95;45.97
52291;BME280;39663;45.432;28.050;2023-04-23T01:56:08;101279.45;;;12.62;46.01
52291;BME280;39663;45.432;28.050;2023-04-23T01:56:40;101276.56;;;12.68;45.85
52291;BME280;39663;45.432;28.050;2023-04-23T01:57:11;101277.27;;;12.60;46.00
52291;BME280;39663;45.432;28.050;2023-04-23T01:57:43;101276.27;;;12.56;46.21
52291;BME280;39663;45.432;28.050;2023-04-23T01:58:14;101274.57;;;12.60;46.09
52291;BME280;39663;45.432;28.050;2023-04-23T01:58:46;101273.73;;;12.74;45.73
52291;BME280;39663;45.432;28.050;2023-04-23T01:59:17;101273.29;;;12.59;45.67
52291;BME280;39663;45.432;28.050;2023-04-23T01:59:49;101273.53;;;12.33;46.32
52291;BME280;39663;45.432;28.050;2023-04-23T02:00:20;101272.41;;;12.39;45.75
52291;BME280;39663;45.432;28.050;2023-04-23T02:00:51;101273.61;;;12.68;46.16
52291;BME280;39663;45.432;28.050;2023-04-23T02:01:23;101271.72;;;12.47;46.07
52291;BME280;39663;45.432;28.050;2023-04-23T02:01:54;101269.51;;;12.64;45.96
52291;BME280;39663;45.432;28.050;2023-04-23T02:02:26;101268.69;;;12.77;45.98
52291;BME280;39663;45.432;28.050;2023-04-23T02:02:57;101269.42;;;12.68;45.52
52291;BME280;39663;45.432;28.050;2023-04-23T02:03:28;101267.70;;;12.71;45.71
52291;BME280;39663;45.432;28.050;2023-04-23T02:04:00;101269.03;;;12.68;45.40
52291;BME280;39663;45.432;28.050;2023-04-23T02:04:33;101269.88;;;12.67;45.30
52291;BME280;39663;45.432;28.050;2023-04-23T02:05:09;101270.05;;;12.81;45.80
52291;BME280;39663;45.432;28.050;2023-04-23T02:05:41;101269.00;;;12.88;45.20
52291;BME280;39663;45.432;28.050;2023-04-23T02:06:13;101269.97;;;12.70;45.74
52291;BME280;39663;45.432;28.050;2023-04-23T02:06:46;101269.18;;;12.89;45.15
52291;BME280;39663;45.432;28.050;2023-04-23T02:07:18;101269.17;;;12.89;45.37
52291;BME280;39663;45.432;28.050;2023-04-23T02:07:50;101269.67;;;12.89;45.60
52291;BME280;39663;45.432;28.050;2023-04-23T02:08:22;101270.54;;;12.93;45.56
52291;BME280;39663;45.432;28.050;2023-04-23T02:08:53;101268.23;;;12.60;45.25
52291;BME280;39663;45.432;28.050;2023-04-23T02:09:25;101268.85;;;12.76;45.83
52291;BME280;39663;45.432;28.050;2023-04-23T02:09:56;101268.76;;;12.67;44.96
52291;BME280;39663;45.432;28.050;2023-04-23T02:10:28;101270.71;;;12.74;45.67
52291;BME280;39663;45.432;28.050;2023-04-23T02:10:59;101269.10;;;12.77;45.72
52291;BME280;39663;45.432;28.050;2023-04-23T02:11:30;101269.36;;;12.64;45.41
52291;BME280;39663;45.432;28.050;2023-04-23T02:12:02;101269.91;;;12.86;45.44
52291;BME280;39663;45.432;28.050;2023-04-23T02:12:34;101267.48;;;12.81;45.63
52291;BME280;39663;45.432;28.050;2023-04-23T02:13:06;101270.13;;;12.89;45.56
52291;BME280;39663;45.432;28.050;2023-04-23T02:13:37;101268.41;;;12.83;45.17
52291;BME280;39663;45.432;28.050;2023-04-23T02:14:09;101266.07;;;12.74;45.26
52291;BME280;39663;45.432;28.050;2023-04-23T02:14:41;101267.87;;;12.88;44.83
52291;BME280;39663;45.432;28.050;2023-04-23T02:15:13;101266.83;;;12.90;45.19
52291;BME280;39663;45.432;28.050;2023-04-23T02:15:45;101265.26;;;12.94;44.64
52291;BME280;39663;45.432;28.050;2023-04-23T02:16:16;101266.04;;;12.99;44.48
52291;BME280;39663;45.432;28.050;2023-04-23T02:16:47;101266.17;;;12.68;45.17
52291;BME280;39663;45.432;28.050;2023-04-23T02:17:20;101265.96;;;12.70;44.84
52291;BME280;39663;45.432;28.050;2023-04-23T02:17:51;101265.91;;;12.60;44.48
52291;BME280;39663;45.432;28.050;2023-04-23T02:18:23;101266.95;;;12.38;44.91
52291;BME280;39663;45.432;28.050;2023-04-23T02:18:55;101264.16;;;12.89;44.55
52291;BME280;39663;45.432;28.050;2023-04-23T02:19:26;101264.77;;;12.50;44.93
52291;BME280;39663;45.432;28.050;2023-04-23T02:19:58;101265.17;;;12.82;44.29
52291;BME280;39663;45.432;28.050;2023-04-23T02:20:29;101265.02;;;12.77;44.57
52291;BME280;39663;45.432;28.050;2023-04-23T02:21:01;101262.54;;;12.82;44.54
52291;BME280;39663;45.432;28.050;2023-04-23T02:21:32;101264.52;;;12.63;44.12
52291;BME280;39663;45.432;28.050;2023-04-23T02:22:04;101263.24;;;12.86;43.97
52291;BME280;39663;45.432;28.050;2023-04-23T02:22:36;101263.86;;;13.08;43.95
52291;BME280;39663;45.432;28.050;2023-04-23T02:23:07;101263.58;;;12.87;44.39
52291;BME280;39663;45.432;28.050;2023-04-23T02:23:39;101262.14;;;13.04;44.56
52291;BME280;39663;45.432;28.050;2023-04-23T02:24:10;101262.03;;;13.11;43.71
52291;BME280;39663;45.432;28.050;2023-04-23T02:24:42;101261.36;;;13.03;44.30
52291;BME280;39663;45.432;28.050;2023-04-23T02:25:14;101261.81;;;13.09;44.54
52291;BME280;39663;45.432;28.050;2023-04-23T02:25:46;101261.50;;;13.42;44.30
52291;BME280;39663;45.432;28.050;2023-04-23T02:26:17;101259.42;;;13.27;44.14
52291;BME280;39663;45.432;28.050;2023-04-23T02:26:49;101258.32;;;13.34;43.58
52291;BME280;39663;45.432;28.050;2023-04-23T02:27:20;101259.09;;;13.37;43.60
52291;BME280;39663;45.432;28.050;2023-04-23T02:27:52;101257.76;;;13.36;43.74
52291;BME280;39663;45.432;28.050;2023-04-23T02:28:23;101257.76;;;13.31;43.46
52291;BME280;39663;45.432;28.050;2023-04-23T02:28:54;101258.92;;;13.55;43.28
52291;BME280;39663;45.432;28.050;2023-04-23T02:29:26;101257.64;;;13.31;43.54
52291;BME280;39663;45.432;28.050;2023-04-23T02:29:57;101256.63;;;13.29;43.18
52291;BME280;39663;45.432;28.050;2023-04-23T02:30:29;101259.47;;;13.06;43.16
52291;BME280;39663;45.432;28.050;2023-04-23T02:31:00;101258.31;;;13.16;43.96
52291;BME280;39663;45.432;28.050;2023-04-23T02:31:32;101261.46;;;13.16;43.89
52291;BME280;39663;45.432;28.050;2023-04-23T02:32:05;101258.26;;;12.89;43.24
52291;BME280;39663;45.432;28.050;2023-04-23T02:32:37;101260.06;;;12.96;44.09
52291;BME280;39663;45.432;28.050;2023-04-23T02:33:09;101261.06;;;13.04;44.03
52291;BME280;39663;45.432;28.050;2023-04-23T02:33:41;101259.52;;;13.10;43.90
52291;BME280;39663;45.432;28.050;2023-04-23T02:34:12;101258.83;;;13.04;43.94
52291;BME280;39663;45.432;28.050;2023-04-23T02:34:44;101257.54;;;13.01;44.29
52291;BME280;39663;45.432;28.050;2023-04-23T02:35:15;101258.79;;;13.05;44.03
52291;BME280;39663;45.432;28.050;2023-04-23T02:35:46;101257.58;;;12.85;44.30
52291;BME280;39663;45.432;28.050;2023-04-23T02:36:18;101258.09;;;13.10;44.08
52291;BME280;39663;45.432;28.050;2023-04-23T02:36:49;101257.86;;;13.32;43.71
52291;BME280;39663;45.432;28.050;2023-04-23T02:37:21;101256.91;;;13.13;44.04
52291;BME280;39663;45.432;28.050;2023-04-23T02:37:52;101256.34;;;13.33;43.78
52291;BME280;39663;45.432;28.050;2023-04-23T02:38:24;101256.28;;;13.08;43.96
52291;BME280;39663;45.432;28.050;2023-04-23T02:38:56;101257.42;;;13.17;43.59
52291;BME280;39663;45.432;28.050;2023-04-23T02:39:27;101255.54;;;13.35;43.51
52291;BME280;39663;45.432;28.050;2023-04-23T02:39:59;101255.19;;;13.21;43.67
52291;BME280;39663;45.432;28.050;2023-04-23T02:40:30;101255.52;;;13.10;43.67
52291;BME280;39663;45.432;28.050;2023-04-23T02:41:02;101255.86;;;13.15;43.78
52291;BME280;39663;45.432;28.050;2023-04-23T02:41:33;101256.03;;;13.19;43.73
52291;BME280;39663;45.432;28.050;2023-04-23T02:42:05;101255.46;;;12.95;43.78
52291;BME280;39663;45.432;28.050;2023-04-23T02:42:36;101256.31;;;13.25;43.26
52291;BME280;39663;45.432;28.050;2023-04-23T02:43:08;101255.90;;;13.24;43.00
52291;BME280;39663;45.432;28.050;2023-04-23T02:43:39;101258.13;;;13.16;43.60
52291;BME280;39663;45.432;28.050;2023-04-23T02:44:11;101257.07;;;13.32;43.67
52291;BME280;39663;45.432;28.050;2023-04-23T02:44:42;101256.79;;;13.39;43.46